Time;durP1;ratioP1;P1;durP2;ratioP2;P2;SDS_P1;SDS_P2;PMS_P1;PMS_P2;Temp;Humidity;BMP_temperature;BMP_pressure;BME280_temperature;BME280_humidity;BME280_pressure;Samples;Min_cycle;Max_cycle;Signal;HPM_P1;HPM_P2
2023/12/09 00:00:39;;;;;;;0.10;0.10;;;;;;;;;;4973276;28;20042;-89
2023/12/09 00:03:06;;;;;;;0.40;0.40;;;;;;;;;;4973286;28;20465;-88
2023/12/09 00:05:32;;;;;;;0.35;0.35;;;;;;;;;;4973134;28;20046;-88
2023/12/09 00:07:58;;;;;;;0.10;0.10;;;;;;;;;;4956894;28;20087;-87
2023/12/09 00:10:24;;;;;;;0.20;0.20;;;;;;;;;;4972907;28;20077;-87
2023/12/09 00:12:50;;;;;;;0.10;0.10;;;;;;;;;;4973010;28;20137;-88
2023/12/09 00:15:17;;;;;;;0.10;0.10;;;;;;;;;;4957001;28;20050;-87
2023/12/09 00:17:43;;;;;;;0.10;0.10;;;;;;;;;;4957084;28;20407;-88
2023/12/09 00:20:09;;;;;;;0.10;0.10;;;;;;;;;;4956514;28;20059;-88
2023/12/09 00:22:35;;;;;;;0.28;0.20;;;;;;;;;;4956655;28;20045;-88
2023/12/09 00:25:01;;;;;;;0.13;0.13;;;;;;;;;;4972921;28;20331;-87
2023/12/09 00:27:27;;;;;;;0.10;0.10;;;;;;;;;;4972741;28;20035;-87
2023/12/09 00:29:53;;;;;;;0.10;0.10;;;;;;;;;;4956744;28;20237;-87
2023/12/09 00:32:20;;;;;;;0.20;0.20;;;;;;;;;;4956636;28;20053;-87
2023/12/09 00:34:46;;;;;;;0.10;0.10;;;;;;;;;;4956758;28;20039;-86
2023/12/09 00:37:12;;;;;;;2.85;0.65;;;;;;;;;;4972738;28;20045;-88
2023/12/09 00:39:38;;;;;;;0.28;0.28;;;;;;;;;;4956528;28;20093;-88
2023/12/09 00:42:04;;;;;;;0.20;0.20;;;;;;;;;;4956455;28;20074;-87
2023/12/09 00:44:30;;;;;;;0.10;0.10;;;;;;;;;;4973029;28;20467;-88
2023/12/09 00:46:56;;;;;;;0.10;0.10;;;;;;;;;;4972408;28;20125;-88
2023/12/09 00:49:22;;;;;;;0.10;0.10;;;;;;;;;;4956272;28;20134;-87
2023/12/09 00:51:49;;;;;;;0.20;0.20;;;;;;;;;;4972791;28;20082;-88
2023/12/09 00:54:15;;;;;;;0.55;0.30;;;;;;;;;;4972784;28;20051;-89
2023/12/09 00:56:41;;;;;;;0.10;0.10;;;;;;;;;;4972664;28;20506;-89
2023/12/09 00:59:07;;;;;;;0.15;0.15;;;;;;;;;;4972318;28;20050;-88
2023/12/09 01:01:33;;;;;;;0.20;0.20;;;;;;;;;;4956265;28;20047;-88
2023/12/09 01:04:00;;;;;;;0.20;0.20;;;;;;;;;;4972417;28;20042;-88
2023/12/09 01:06:27;;;;;;;0.22;0.22;;;;;;;;;;4972238;28;20047;-89
2023/12/09 01:08:53;;;;;;;0.10;0.10;;;;;;;;;;4956349;28;20046;-89
2023/12/09 01:11:19;;;;;;;0.10;0.10;;;;;;;;;;4956304;28;20039;-88
2023/12/09 01:13:45;;;;;;;0.10;0.10;;;;;;;;;;4956281;28;20053;-89
2023/12/09 01:16:11;;;;;;;0.50;0.50;;;;;;;;;;4956276;28;20053;-88
2023/12/09 01:18:37;;;;;;;0.20;0.20;;;;;;;;;;4971861;28;20074;-88
2023/12/09 01:21:03;;;;;;;0.10;0.10;;;;;;;;;;4971936;28;20076;-88
2023/12/09 01:23:30;;;;;;;0.32;0.32;;;;;;;;;;4972208;28;20113;-88
2023/12/09 01:25:56;;;;;;;0.22;0.22;;;;;;;;;;4971962;28;20047;-88
2023/12/09 01:28:22;;;;;;;0.10;0.10;;;;;;;;;;4956120;28;20042;-87
2023/12/09 01:30:48;;;;;;;0.10;0.10;;;;;;;;;;4972155;28;20054;-87
2023/12/09 01:33:14;;;;;;;0.10;0.10;;;;;;;;;;4955928;28;20495;-88
2023/12/09 01:35:40;;;;;;;0.30;0.30;;;;;;;;;;4955897;28;20055;-87
2023/12/09 01:38:07;;;;;;;0.13;0.13;;;;;;;;;;4955917;28;20118;-88
2023/12/09 01:40:33;;;;;;;0.10;0.10;;;;;;;;;;4972095;28;20050;-88
2023/12/09 01:42:59;;;;;;;0.52;0.40;;;;;;;;;;4971885;28;20049;-88
2023/12/09 01:45:25;;;;;;;0.10;0.10;;;;;;;;;;4956059;28;20414;-88
2023/12/09 01:47:51;;;;;;;0.10;0.10;;;;;;;;;;4955851;28;20395;-88
2023/12/09 01:50:17;;;;;;;0.20;0.20;;;;;;;;;;4955825;28;20100;-88
2023/12/09 01:52:43;;;;;;;0.10;0.10;;;;;;;;;;4955754;28;20050;-87
2023/12/09 01:55:12;;;;;;;0.10;0.10;;;;;;;;;;4958595;28;20047;-87
2023/12/09 01:57:38;;;;;;;0.10;0.10;;;;;;;;;;4959273;28;20050;-88
2023/12/09 02:00:04;;;;;;;0.85;0.85;;;;;;;;;;4959206;28;20038;-88
2023/12/09 02:02:31;;;;;;;0.10;0.10;;;;;;;;;;4975557;28;20126;-88
2023/12/09 02:04:57;;;;;;;0.35;0.35;;;;;;;;;;4975300;28;20039;-88
2023/12/09 02:07:23;;;;;;;0.10;0.10;;;;;;;;;;4975456;28;20054;-88
2023/12/09 02:09:49;;;;;;;0.10;0.10;;;;;;;;;;4959420;28;20043;-89
2023/12/09 02:12:15;;;;;;;0.43;0.43;;;;;;;;;;4975244;28;20131;-89
2023/12/09 02:15:01;;;;;;;0.20;0.20;;;;;;;;;;4975211;28;20065;-88
2023/12/09 02:17:27;;;;;;;0.30;0.30;;;;;;;;;;4975363;28;20364;-88
2023/12/09 02:19:54;;;;;;;0.10;0.10;;;;;;;;;;4974979;28;20150;-88
2023/12/09 02:22:20;;;;;;;0.10;0.10;;;;;;;;;;4959023;28;20051;-87
2023/12/09 02:24:46;;;;;;;0.10;0.10;;;;;;;;;;4959154;28;20505;-88
2023/12/09 02:27:16;;;;;;;0.20;0.20;;;;;;;;;;4974948;28;20031;-88
2023/12/09 02:30:02;;;;;;;0.20;0.20;;;;;;;;;;4974894;28;20057;-88
2023/12/09 02:32:30;;;;;;;0.25;0.17;;;;;;;;;;4961685;28;20109;-87
2023/12/09 02:34:56;;;;;;;0.10;0.10;;;;;;;;;;4974877;28;20126;-87
2023/12/09 02:37:22;;;;;;;0.17;0.17;;;;;;;;;;4974745;28;20081;-88
2023/12/09 02:39:49;;;;;;;0.10;0.10;;;;;;;;;;4974468;28;20050;-88
2023/12/09 02:42:15;;;;;;;0.40;0.40;;;;;;;;;;4974513;28;20046;-88
2023/12/09 02:44:42;;;;;;;0.10;0.10;;;;;;;;;;4974559;28;20049;-88
2023/12/09 02:47:12;;;;;;;0.10;0.10;;;;;;;;;;4958819;28;20465;-88
2023/12/09 02:49:38;;;;;;;0.20;0.20;;;;;;;;;;4958562;28;20049;-89
2023/12/09 02:52:05;;;;;;;0.38;0.38;;;;;;;;;;4974511;28;20050;-88
2023/12/09 02:54:31;;;;;;;0.10;0.10;;;;;;;;;;4958708;28;20440;-87
2023/12/09 02:56:57;;;;;;;1.35;0.65;;;;;;;;;;4958744;28;20074;-89
2023/12/09 02:59:23;;;;;;;0.17;0.17;;;;;;;;;;4974554;28;20043;-89
2023/12/09 03:01:49;;;;;;;0.20;0.20;;;;;;;;;;4958428;28;20039;-88
2023/12/09 03:04:15;;;;;;;0.20;0.20;;;;;;;;;;4958330;28;20335;-88
2023/12/09 03:06:41;;;;;;;0.20;0.17;;;;;;;;;;4974248;28;20043;-88
2023/12/09 03:09:07;;;;;;;0.10;0.10;;;;;;;;;;4974180;28;20125;-89
2023/12/09 03:11:33;;;;;;;0.15;0.15;;;;;;;;;;4958477;28;20376;-88
2023/12/09 03:13:59;;;;;;;0.20;0.20;;;;;;;;;;4974269;28;20049;-88
2023/12/09 03:16:25;;;;;;;0.10;0.10;;;;;;;;;;4974750;28;20082;-89
2023/12/09 03:18:51;;;;;;;0.10;0.10;;;;;;;;;;4957903;28;20059;-89
2023/12/09 03:21:17;;;;;;;0.10;0.10;;;;;;;;;;4957940;28;20045;-88
2023/12/09 03:23:43;;;;;;;0.32;0.32;;;;;;;;;;4974020;28;20129;-88
2023/12/09 03:26:16;;;;;;;0.10;0.10;;;;;;;;;;4974016;28;20043;-88
2023/12/09 03:28:42;;;;;;;0.20;0.20;;;;;;;;;;4974084;28;20430;-88
2023/12/09 03:31:09;;;;;;;0.10;0.10;;;;;;;;;;4973994;28;20455;-89
2023/12/09 03:33:35;;;;;;;0.20;0.20;;;;;;;;;;4957779;28;20083;-88
2023/12/09 03:36:02;;;;;;;0.10;0.10;;;;;;;;;;4957705;28;20070;-88
2023/12/09 03:38:28;;;;;;;0.10;0.10;;;;;;;;;;4957719;28;20039;-88
2023/12/09 03:40:54;;;;;;;0.43;0.43;;;;;;;;;;4973621;28;20043;-88
2023/12/09 03:43:20;;;;;;;0.10;0.10;;;;;;;;;;4957629;28;20517;-87
2023/12/09 03:45:46;;;;;;;0.10;0.10;;;;;;;;;;4957708;28;20034;-88
2023/12/09 03:48:12;;;;;;;0.20;0.20;;;;;;;;;;4957553;28;20119;-88
2023/12/09 03:50:38;;;;;;;0.90;0.38;;;;;;;;;;4957438;28;20093;-87
2023/12/09 03:53:04;;;;;;;0.10;0.10;;;;;;;;;;4957391;28;20039;-88
2023/12/09 03:55:30;;;;;;;0.10;0.10;;;;;;;;;;4957536;28;20088;-88
2023/12/09 03:57:56;;;;;;;0.17;0.17;;;;;;;;;;4957439;28;20050;-88
2023/12/09 04:00:22;;;;;;;0.10;0.10;;;;;;;;;;4957288;28;20070;-89
2023/12/09 04:02:49;;;;;;;0.20;0.20;;;;;;;;;;4973349;28;20077;-89
2023/12/09 04:05:18;;;;;;;0.30;0.15;;;;;;;;;;4957211;28;20050;-89
2023/12/09 04:07:44;;;;;;;0.10;0.10;;;;;;;;;;4973719;28;20097;-89
2023/12/09 04:10:10;;;;;;;0.10;0.10;;;;;;;;;;4973456;28;20053;-88
2023/12/09 04:12:36;;;;;;;0.20;0.20;;;;;;;;;;4957152;28;20077;-89
2023/12/09 04:15:03;;;;;;;0.10;0.10;;;;;;;;;;4957334;28;20070;-90
2023/12/09 04:17:29;;;;;;;0.10;0.10;;;;;;;;;;4973095;28;20494;-89
2023/12/09 04:19:55;;;;;;;0.20;0.20;;;;;;;;;;4972638;28;20063;-88
2023/12/09 04:22:21;;;;;;;0.10;0.10;;;;;;;;;;4957471;28;20066;-89
2023/12/09 04:24:47;;;;;;;0.20;0.20;;;;;;;;;;4973100;28;20050;-90
2023/12/09 04:27:14;;;;;;;0.28;0.28;;;;;;;;;;4972999;28;20097;-88
2023/12/09 04:29:40;;;;;;;0.10;0.10;;;;;;;;;;4956609;28;20047;-88
2023/12/09 04:32:06;;;;;;;0.20;0.20;;;;;;;;;;4957015;28;20053;-88
2023/12/09 04:34:33;;;;;;;0.10;0.10;;;;;;;;;;4972891;28;20074;-89
2023/12/09 04:37:00;;;;;;;0.20;0.20;;;;;;;;;;4956951;28;20454;-89
2023/12/09 04:39:26;;;;;;;0.15;0.15;;;;;;;;;;4956734;28;20089;-88
2023/12/09 04:41:52;;;;;;;0.10;0.10;;;;;;;;;;4972592;28;20167;-89
2023/12/09 04:44:18;;;;;;;0.10;0.10;;;;;;;;;;4956681;28;20083;-88
2023/12/09 04:46:44;;;;;;;0.20;0.20;;;;;;;;;;4972529;28;20506;-88
2023/12/09 04:49:10;;;;;;;0.10;0.10;;;;;;;;;;4972714;28;20039;-88
2023/12/09 04:51:36;;;;;;;0.13;0.13;;;;;;;;;;4972654;28;20043;-86
2023/12/09 04:54:02;;;;;;;0.20;0.20;;;;;;;;;;4972538;28;20050;-88
2023/12/09 04:56:28;;;;;;;0.13;0.13;;;;;;;;;;4956614;28;20061;-87
2023/12/09 04:58:54;;;;;;;0.10;0.10;;;;;;;;;;4956332;28;20450;-89
2023/12/09 05:01:21;;;;;;;0.10;0.10;;;;;;;;;;4956130;28;20133;-88
2023/12/09 05:03:47;;;;;;;0.13;0.13;;;;;;;;;;4956256;28;20045;-88
2023/12/09 05:06:13;;;;;;;0.20;0.20;;;;;;;;;;4956183;28;20537;-87
2023/12/09 05:08:42;;;;;;;0.10;0.10;;;;;;;;;;4972484;28;20051;-87
2023/12/09 05:11:08;;;;;;;0.40;0.40;;;;;;;;;;4972576;28;20047;-88
2023/12/09 05:13:34;;;;;;;0.10;0.10;;;;;;;;;;4956745;28;20062;-89
2023/12/09 05:16:00;;;;;;;0.20;0.20;;;;;;;;;;4956465;28;20046;-88
2023/12/09 05:18:26;;;;;;;0.15;0.15;;;;;;;;;;4955948;28;20038;-88
2023/12/09 05:20:52;;;;;;;0.30;0.30;;;;;;;;;;4956306;28;20054;-88
2023/12/09 05:23:18;;;;;;;0.10;0.10;;;;;;;;;;4972459;28;20039;-89
2023/12/09 05:25:44;;;;;;;0.20;0.20;;;;;;;;;;4972502;28;20104;-91
2023/12/09 05:28:11;;;;;;;0.10;0.10;;;;;;;;;;5295828;23;20355;-93
2023/12/09 05:30:41;;;;;;;0.17;0.17;;;;;;;;;;4979843;28;20042;-89
2023/12/09 05:33:07;;;;;;;1.38;0.20;;;;;;;;;;4982672;28;20460;-88
2023/12/09 05:35:33;;;;;;;0.20;0.20;;;;;;;;;;4998675;28;20073;-89
2023/12/09 05:37:59;;;;;;;0.10;0.10;;;;;;;;;;4982206;28;20138;-88
2023/12/09 05:40:25;;;;;;;0.10;0.10;;;;;;;;;;4982247;28;20088;-89
2023/12/09 05:42:51;;;;;;;0.22;0.22;;;;;;;;;;4998513;28;20038;-89
2023/12/09 05:45:17;;;;;;;0.10;0.10;;;;;;;;;;4998474;28;20048;-89
2023/12/09 05:47:43;;;;;;;0.20;0.20;;;;;;;;;;4982291;28;20051;-90
2023/12/09 05:50:10;;;;;;;0.10;0.10;;;;;;;;;;4981751;28;20489;-89
2023/12/09 05:52:36;;;;;;;0.10;0.10;;;;;;;;;;4998404;28;20045;-89
2023/12/09 05:55:02;;;;;;;0.68;0.20;;;;;;;;;;4998462;28;20187;-89
2023/12/09 05:57:28;;;;;;;0.10;0.10;;;;;;;;;;4982107;28;20045;-88
2023/12/09 05:59:55;;;;;;;0.20;0.20;;;;;;;;;;4981830;28;20129;-89
2023/12/09 06:02:21;;;;;;;0.10;0.10;;;;;;;;;;4998036;28;20046;-89
2023/12/09 06:04:47;;;;;;;0.10;0.10;;;;;;;;;;4997930;28;20045;-89
2023/12/09 06:07:13;;;;;;;0.30;0.30;;;;;;;;;;4998247;28;20033;-90
2023/12/09 06:09:39;;;;;;;0.22;0.22;;;;;;;;;;4981791;28;20042;-90
2023/12/09 06:12:06;;;;;;;0.10;0.10;;;;;;;;;;4982017;28;20128;-90
2023/12/09 06:14:32;;;;;;;0.10;0.10;;;;;;;;;;4997907;28;20046;-90
2023/12/09 06:16:58;;;;;;;0.10;0.10;;;;;;;;;;4997959;28;20041;-89
2023/12/09 06:19:24;;;;;;;0.15;0.15;;;;;;;;;;4981550;28;20037;-90
2023/12/09 06:21:50;;;;;;;1.48;1.33;;;;;;;;;;4981932;28;20048;-90
2023/12/09 06:24:16;;;;;;;0.20;0.20;;;;;;;;;;4981621;28;20041;-90
2023/12/09 06:26:44;;;;;;;0.10;0.10;;;;;;;;;;4997780;28;20038;-89
2023/12/09 06:29:13;;;;;;;0.20;0.20;;;;;;;;;;4997739;28;20046;-91
2023/12/09 06:31:39;;;;;;;0.28;0.20;;;;;;;;;;4997666;28;20045;-89
2023/12/09 06:34:05;;;;;;;0.22;0.22;;;;;;;;;;4981710;28;20048;-89
2023/12/09 06:36:31;;;;;;;0.10;0.10;;;;;;;;;;4997676;28;20046;-89
2023/12/09 06:38:57;;;;;;;0.10;0.10;;;;;;;;;;4981391;28;20121;-90
2023/12/09 06:41:23;;;;;;;0.10;0.10;;;;;;;;;;4981070;28;20520;-90
2023/12/09 06:43:50;;;;;;;0.30;0.30;;;;;;;;;;4997875;28;20074;-90
2023/12/09 06:46:16;;;;;;;8.68;0.75;;;;;;;;;;4981885;28;20045;-90
2023/12/09 06:48:42;;;;;;;0.10;0.10;;;;;;;;;;4981875;28;20449;-89
2023/12/09 06:51:17;;;;;;;0.10;0.10;;;;;;;;;;4997821;28;20401;-90
2023/12/09 06:53:43;;;;;;;0.10;0.10;;;;;;;;;;4981115;28;20057;-90
2023/12/09 06:56:18;;;;;;;0.30;0.30;;;;;;;;;;4981051;28;20046;-89
2023/12/09 06:58:45;;;;;;;0.10;0.10;;;;;;;;;;4997502;28;20096;-90
2023/12/09 07:01:19;;;;;;;0.30;0.30;;;;;;;;;;4997349;28;20049;-90
2023/12/09 07:03:45;;;;;;;0.10;0.10;;;;;;;;;;4996976;28;20041;-89
2023/12/09 07:06:10;;;;;;;0.10;0.10;;;;;;;;;;4997283;28;20088;-90
2023/12/09 07:08:36;;;;;;;0.10;0.10;;;;;;;;;;4981067;28;20099;-91
2023/12/09 07:11:03;;;;;;;0.10;0.10;;;;;;;;;;4980526;28;20041;-90
2023/12/09 07:13:29;;;;;;;0.30;0.30;;;;;;;;;;4980666;28;20072;-90
2023/12/09 07:15:55;;;;;;;0.30;0.30;;;;;;;;;;4980636;28;20125;-90
2023/12/09 07:18:21;;;;;;;0.10;0.10;;;;;;;;;;4980944;28;20044;-89
2023/12/09 07:20:47;;;;;;;5.78;1.20;;;;;;;;;;4980508;28;20105;-90
2023/12/09 07:23:14;;;;;;;0.20;0.20;;;;;;;;;;4980449;28;20049;-89
2023/12/09 07:25:40;;;;;;;0.38;0.38;;;;;;;;;;4996578;28;20060;-90
2023/12/09 07:28:06;;;;;;;0.20;0.20;;;;;;;;;;4980149;28;20045;-89
2023/12/09 07:30:32;;;;;;;0.10;0.10;;;;;;;;;;4980257;28;20053;-88
2023/12/09 07:32:58;;;;;;;0.55;0.55;;;;;;;;;;4996419;28;20501;-89
2023/12/09 07:35:24;;;;;;;0.32;0.32;;;;;;;;;;4980236;28;20046;-89
2023/12/09 07:37:51;;;;;;;0.10;0.10;;;;;;;;;;4980315;28;20045;-88
2023/12/09 07:40:16;;;;;;;0.85;0.55;;;;;;;;;;4996318;28;20050;-89
2023/12/09 07:42:43;;;;;;;0.10;0.10;;;;;;;;;;4980059;28;20038;-89
2023/12/09 07:45:09;;;;;;;0.22;0.22;;;;;;;;;;4996274;28;20046;-89
2023/12/09 07:47:35;;;;;;;0.10;0.10;;;;;;;;;;4996083;28;20056;-89
2023/12/09 07:50:01;;;;;;;0.10;0.10;;;;;;;;;;4995986;28;20046;-89
2023/12/09 07:52:27;;;;;;;0.52;0.30;;;;;;;;;;4978970;28;20096;-89
2023/12/09 07:54:53;;;;;;;0.13;0.13;;;;;;;;;;4996009;28;20402;-89
2023/12/09 07:57:19;;;;;;;0.10;0.10;;;;;;;;;;4979899;28;20049;-90
2023/12/09 07:59:45;;;;;;;0.10;0.10;;;;;;;;;;4995799;28;20038;-90
2023/12/09 08:02:11;;;;;;;0.30;0.30;;;;;;;;;;4980013;28;20050;-90
2023/12/09 08:04:38;;;;;;;0.10;0.10;;;;;;;;;;4979916;28;20042;-90
2023/12/09 08:07:04;;;;;;;0.20;0.20;;;;;;;;;;4979903;28;20099;-90
2023/12/09 08:09:30;;;;;;;0.85;0.85;;;;;;;;;;4996130;28;20100;-90
2023/12/09 08:11:56;;;;;;;0.20;0.20;;;;;;;;;;4995919;28;20128;-90
2023/12/09 08:14:22;;;;;;;0.20;0.20;;;;;;;;;;4979725;28;20589;-90
2023/12/09 08:16:48;;;;;;;0.20;0.20;;;;;;;;;;4979932;28;20041;-88
2023/12/09 08:19:14;;;;;;;0.10;0.10;;;;;;;;;;4995749;28;20069;-90
2023/12/09 08:21:40;;;;;;;1.10;0.50;;;;;;;;;;5001254;28;20120;-93
2023/12/09 08:24:07;;;;;;;0.10;0.10;;;;;;;;;;4980853;28;20290;-90
2023/12/09 08:26:33;;;;;;;1.77;1.65;;;;;;;;;;5004730;28;20042;-89
2023/12/09 08:29:00;;;;;;;0.10;0.10;;;;;;;;;;4998118;28;20057;-89
2023/12/09 08:31:26;;;;;;;0.30;0.30;;;;;;;;;;4995371;28;20085;-88
2023/12/09 08:33:52;;;;;;;0.10;0.10;;;;;;;;;;4979421;28;20096;-88
2023/12/09 08:36:18;;;;;;;0.20;0.20;;;;;;;;;;4979001;28;20045;-89
2023/12/09 08:38:44;;;;;;;0.20;0.20;;;;;;;;;;4995143;28;20053;-89
2023/12/09 08:41:10;;;;;;;0.20;0.20;;;;;;;;;;4995076;28;20042;-88
2023/12/09 08:43:36;;;;;;;0.10;0.10;;;;;;;;;;4978953;28;20076;-89
2023/12/09 08:46:02;;;;;;;0.20;0.20;;;;;;;;;;4995087;28;20428;-89
2023/12/09 08:48:28;;;;;;;0.10;0.10;;;;;;;;;;4978810;28;20519;-89
2023/12/09 08:50:56;;;;;;;0.28;0.28;;;;;;;;;;4978856;28;20042;-89
2023/12/09 08:53:22;;;;;;;1.67;0.22;;;;;;;;;;4994996;28;20093;-89
2023/12/09 08:55:48;;;;;;;0.10;0.10;;;;;;;;;;4995067;28;20049;-88
2023/12/09 08:58:16;;;;;;;0.13;0.13;;;;;;;;;;4994986;28;20084;-90
2023/12/09 09:00:42;;;;;;;0.10;0.10;;;;;;;;;;4995242;28;20046;-92
2023/12/09 09:03:08;;;;;;;0.20;0.20;;;;;;;;;;4978788;28;20042;-90
2023/12/09 09:05:34;;;;;;;0.10;0.10;;;;;;;;;;4978610;28;20088;-89
2023/12/09 09:08:00;;;;;;;0.10;0.10;;;;;;;;;;4994187;28;20073;-89
2023/12/09 09:10:26;;;;;;;0.10;0.10;;;;;;;;;;4997958;28;20076;-89
2023/12/09 09:12:52;;;;;;;0.22;0.22;;;;;;;;;;4979909;28;20045;-89
2023/12/09 09:15:19;;;;;;;0.10;0.10;;;;;;;;;;4994975;28;20049;-89
2023/12/09 09:17:45;;;;;;;0.10;0.10;;;;;;;;;;4994724;28;20041;-89
2023/12/09 09:20:11;;;;;;;0.10;0.10;;;;;;;;;;4978132;28;20041;-89
2023/12/09 09:22:37;;;;;;;0.15;0.15;;;;;;;;;;4978082;28;20034;-89
2023/12/09 09:25:03;;;;;;;0.10;0.10;;;;;;;;;;4978473;28;20120;-89
2023/12/09 09:27:29;;;;;;;0.10;0.10;;;;;;;;;;4994543;28;20432;-89
2023/12/09 09:29:55;;;;;;;0.20;0.20;;;;;;;;;;4978145;28;20383;-89
2023/12/09 09:32:21;;;;;;;0.10;0.10;;;;;;;;;;4994234;28;20097;-89
2023/12/09 09:34:47;;;;;;;0.10;0.10;;;;;;;;;;4978312;28;20042;-89
2023/12/09 09:37:14;;;;;;;0.10;0.10;;;;;;;;;;4978209;28;20053;-89
2023/12/09 09:39:40;;;;;;;0.15;0.15;;;;;;;;;;5010892;28;20048;-89
2023/12/09 09:42:25;;;;;;;0.20;0.20;;;;;;;;;;4980830;28;20400;-89
2023/12/09 09:44:57;;;;;;;0.50;0.50;;;;;;;;;;5013848;28;20040;-88
2023/12/09 09:47:23;;;;;;;0.10;0.10;;;;;;;;;;4985836;28;20461;-93
2023/12/09 09:49:49;;;;;;;0.20;0.20;;;;;;;;;;4978437;28;20426;-89
2023/12/09 09:52:15;;;;;;;0.10;0.10;;;;;;;;;;4994445;28;20042;-89
2023/12/09 09:54:41;;;;;;;0.25;0.25;;;;;;;;;;4978379;28;20042;-89
2023/12/09 09:57:08;;;;;;;0.10;0.10;;;;;;;;;;4978108;28;20046;-89
2023/12/09 09:59:34;;;;;;;0.20;0.20;;;;;;;;;;4977983;28;20459;-88
2023/12/09 10:02:00;;;;;;;0.10;0.10;;;;;;;;;;5010525;28;20054;-89
2023/12/09 10:04:26;;;;;;;0.20;0.20;;;;;;;;;;4995053;28;20042;-94
2023/12/09 10:06:52;;;;;;;0.20;0.20;;;;;;;;;;4978529;28;20042;-89
2023/12/09 10:09:19;;;;;;;0.10;0.10;;;;;;;;;;4996715;28;20079;-88
2023/12/09 10:11:45;;;;;;;0.20;0.20;;;;;;;;;;4975644;28;20042;-88
2023/12/09 10:14:11;;;;;;;1.98;0.98;;;;;;;;;;4978226;28;20049;-89
2023/12/09 10:16:38;;;;;;;0.13;0.13;;;;;;;;;;4981364;28;20470;-88
2023/12/09 10:19:04;;;;;;;0.20;0.20;;;;;;;;;;4981323;28;20169;-89
2023/12/09 10:21:30;;;;;;;0.10;0.10;;;;;;;;;;4997442;28;20501;-88
2023/12/09 10:23:56;;;;;;;0.10;0.10;;;;;;;;;;4981426;28;20041;-88
2023/12/09 10:26:22;;;;;;;0.20;0.20;;;;;;;;;;4981257;28;20089;-88
2023/12/09 10:28:48;;;;;;;3.83;1.75;;;;;;;;;;4981346;28;20057;-89
2023/12/09 10:31:14;;;;;;;0.10;0.10;;;;;;;;;;4997435;28;20453;-88
2023/12/09 10:33:40;;;;;;;0.20;0.20;;;;;;;;;;4981630;28;20050;-88
2023/12/09 10:36:08;;;;;;;0.20;0.20;;;;;;;;;;4981189;28;20477;-91
2023/12/09 10:38:33;;;;;;;0.10;0.10;;;;;;;;;;4997433;28;20042;-90
2023/12/09 10:40:59;;;;;;;0.13;0.13;;;;;;;;;;4981320;28;20481;-89
2023/12/09 10:43:25;;;;;;;0.10;0.10;;;;;;;;;;4983627;28;20038;-89
2023/12/09 10:45:52;;;;;;;0.10;0.10;;;;;;;;;;4981411;28;20033;-91
2023/12/09 10:48:18;;;;;;;0.30;0.30;;;;;;;;;;4997494;28;20050;-89
2023/12/09 10:50:46;;;;;;;0.10;0.10;;;;;;;;;;4997305;28;20080;-90
2023/12/09 10:53:12;;;;;;;0.10;0.10;;;;;;;;;;4996971;28;20048;-89
2023/12/09 10:55:39;;;;;;;0.10;0.10;;;;;;;;;;4997145;28;20181;-89
2023/12/09 10:58:05;;;;;;;0.20;0.20;;;;;;;;;;4996953;28;20505;-89
2023/12/09 11:00:32;;;;;;;0.10;0.10;;;;;;;;;;4996985;28;20048;-90
2023/12/09 11:02:58;;;;;;;0.10;0.10;;;;;;;;;;4980877;28;20044;-89
2023/12/09 11:05:25;;;;;;;0.10;0.10;;;;;;;;;;4980735;28;20080;-87
2023/12/09 11:07:51;;;;;;;0.10;0.10;;;;;;;;;;4997048;28;20096;-89
2023/12/09 11:10:18;;;;;;;0.10;0.10;;;;;;;;;;4981013;28;20477;-92
2023/12/09 11:12:44;;;;;;;0.10;0.10;;;;;;;;;;4982525;28;20048;-90
2023/12/09 11:15:13;;;;;;;0.10;0.10;;;;;;;;;;4980827;28;20172;-90
2023/12/09 11:17:49;;;;;;;0.20;0.20;;;;;;;;;;4996973;28;20420;-90
2023/12/09 11:20:20;;;;;;;0.20;0.20;;;;;;;;;;4980345;28;20045;-90
2023/12/09 11:22:47;;;;;;;0.10;0.10;;;;;;;;;;4996887;28;20405;-90
2023/12/09 11:25:19;;;;;;;0.15;0.15;;;;;;;;;;4994844;28;20401;-88
2023/12/09 11:27:45;;;;;;;0.20;0.20;;;;;;;;;;4995268;28;20104;-89
2023/12/09 11:30:30;;;;;;;0.10;0.10;;;;;;;;;;4963889;28;20137;-89
2023/12/09 11:32:56;;;;;;;0.20;0.20;;;;;;;;;;4996753;28;20060;-89
2023/12/09 11:35:23;;;;;;;0.20;0.20;;;;;;;;;;4979955;28;20042;-89
2023/12/09 11:37:49;;;;;;;0.15;0.15;;;;;;;;;;4996453;28;20125;-87
2023/12/09 11:40:15;;;;;;;0.10;0.10;;;;;;;;;;4979762;28;20038;-89
2023/12/09 11:42:42;;;;;;;0.10;0.10;;;;;;;;;;4996245;28;20046;-90
2023/12/09 11:45:09;;;;;;;0.10;0.10;;;;;;;;;;4995917;28;20046;-89
2023/12/09 11:47:36;;;;;;;0.10;0.10;;;;;;;;;;4995997;28;20034;-89
2023/12/09 11:50:03;;;;;;;0.10;0.10;;;;;;;;;;4979717;28;20046;-90
2023/12/09 11:52:29;;;;;;;0.10;0.10;;;;;;;;;;4979656;28;20132;-88
2023/12/09 11:54:59;;;;;;;0.10;0.10;;;;;;;;;;4979638;28;20088;-89
2023/12/09 11:57:25;;;;;;;0.10;0.10;;;;;;;;;;4979666;28;20493;-88
2023/12/09 11:59:51;;;;;;;0.10;0.10;;;;;;;;;;4995407;28;20486;-90
2023/12/09 12:02:19;;;;;;;0.20;0.20;;;;;;;;;;4979618;28;20041;-88
2023/12/09 12:04:45;;;;;;;0.20;0.20;;;;;;;;;;4979510;28;20038;-94
2023/12/09 12:07:12;;;;;;;0.30;0.30;;;;;;;;;;5003083;28;20060;-89
2023/12/09 12:09:38;;;;;;;0.20;0.20;;;;;;;;;;4979376;28;20481;-90
2023/12/09 12:12:05;;;;;;;0.10;0.10;;;;;;;;;;4979403;28;20038;-90
2023/12/09 12:14:32;;;;;;;0.10;0.10;;;;;;;;;;4995895;28;20307;-89
2023/12/09 12:16:58;;;;;;;0.20;0.20;;;;;;;;;;4979373;28;20045;-90
2023/12/09 12:19:24;;;;;;;0.10;0.10;;;;;;;;;;4979477;28;20042;-90
2023/12/09 12:21:53;;;;;;;0.10;0.10;;;;;;;;;;4979398;28;20041;-90
2023/12/09 12:24:19;;;;;;;0.10;0.10;;;;;;;;;;4995528;28;20092;-90
2023/12/09 12:26:48;;;;;;;0.20;0.20;;;;;;;;;;4979450;28;20038;-90
2023/12/09 12:29:19;;;;;;;0.10;0.10;;;;;;;;;;4994270;28;20080;-90
2023/12/09 12:31:48;;;;;;;0.10;0.10;;;;;;;;;;4982091;28;20057;-90
2023/12/09 12:34:17;;;;;;;0.10;0.10;;;;;;;;;;4982493;28;20047;-90
2023/12/09 12:36:44;;;;;;;0.20;0.20;;;;;;;;;;4982549;28;20436;-90
2023/12/09 12:39:14;;;;;;;0.20;0.20;;;;;;;;;;5014348;28;20496;-89
2023/12/09 12:41:40;;;;;;;0.10;0.10;;;;;;;;;;4982573;28;20048;-89
2023/12/09 12:44:06;;;;;;;0.20;0.20;;;;;;;;;;4982183;28;20520;-89
2023/12/09 12:46:32;;;;;;;0.10;0.10;;;;;;;;;;4982438;28;20504;-89
2023/12/09 12:48:58;;;;;;;0.10;0.10;;;;;;;;;;4998364;28;20076;-88
2023/12/09 12:51:25;;;;;;;0.10;0.10;;;;;;;;;;4982256;28;20051;-89
2023/12/09 12:53:51;;;;;;;0.10;0.10;;;;;;;;;;5014640;28;20041;-89
2023/12/09 12:56:17;;;;;;;0.10;0.10;;;;;;;;;;4982607;28;20042;-89
2023/12/09 12:58:43;;;;;;;0.10;0.10;;;;;;;;;;4998048;28;20120;-90
2023/12/09 13:01:09;;;;;;;0.10;0.10;;;;;;;;;;4982127;28;20046;-90
2023/12/09 13:03:35;;;;;;;0.15;0.15;;;;;;;;;;4968198;28;20037;-89
2023/12/09 13:06:01;;;;;;;0.20;0.20;;;;;;;;;;4978697;28;20539;-89
2023/12/09 13:08:27;;;;;;;0.20;0.20;;;;;;;;;;4978858;28;20045;-89
2023/12/09 13:10:53;;;;;;;0.10;0.10;;;;;;;;;;4994911;28;20046;-89
2023/12/09 13:13:19;;;;;;;0.10;0.10;;;;;;;;;;4978311;28;20101;-90
2023/12/09 13:15:46;;;;;;;0.22;0.22;;;;;;;;;;4996134;28;20077;-92
2023/12/09 13:18:15;;;;;;;0.10;0.10;;;;;;;;;;5003589;28;20112;-93
2023/12/09 13:20:46;;;;;;;0.10;0.10;;;;;;;;;;4967633;28;20602;-91
2023/12/09 13:23:19;;;;;;;0.20;0.20;;;;;;;;;;4988396;28;20049;-93
2023/12/09 13:25:46;;;;;;;0.10;0.10;;;;;;;;;;4996902;28;20081;-90
2023/12/09 13:28:12;;;;;;;0.10;0.10;;;;;;;;;;4980462;28;20513;-89
2023/12/09 13:33:09;;;;;;;0.17;0.17;;;;;;;;;;5018872;28;20113;-91
2023/12/09 13:35:35;;;;;;;0.10;0.10;;;;;;;;;;4985074;28;20470;-89
2023/12/09 13:38:01;;;;;;;0.10;0.10;;;;;;;;;;4980206;28;20394;-91
2023/12/09 13:40:27;;;;;;;0.10;0.10;;;;;;;;;;4986015;28;20426;-91
2023/12/09 13:42:54;;;;;;;0.20;0.20;;;;;;;;;;4959372;28;20068;-91
2023/12/09 13:45:21;;;;;;;0.20;0.20;;;;;;;;;;4959342;28;20045;-92
2023/12/09 13:47:47;;;;;;;0.10;0.10;;;;;;;;;;4958972;28;20085;-90
2023/12/09 13:50:17;;;;;;;0.40;0.30;;;;;;;;;;4964678;28;20050;-94
2023/12/09 13:52:44;;;;;;;0.20;0.20;;;;;;;;;;4963744;28;20052;-91
2023/12/09 13:55:10;;;;;;;0.10;0.10;;;;;;;;;;4962620;28;20045;-92
2023/12/09 13:57:36;;;;;;;0.10;0.10;;;;;;;;;;4962731;28;20049;-89
2023/12/09 14:00:07;;;;;;;0.10;0.10;;;;;;;;;;4962625;28;20453;-89
2023/12/09 14:02:36;;;;;;;0.10;0.10;;;;;;;;;;4963700;28;20046;-90
2023/12/09 14:05:03;;;;;;;0.10;0.10;;;;;;;;;;4963209;28;20129;-92
2023/12/09 14:07:30;;;;;;;0.10;0.10;;;;;;;;;;4962999;28;20043;-90
2023/12/09 14:09:58;;;;;;;0.20;0.20;;;;;;;;;;4962695;28;20046;-92
2023/12/09 14:12:25;;;;;;;0.10;0.10;;;;;;;;;;4963861;28;20042;-91
2023/12/09 14:14:51;;;;;;;0.10;0.10;;;;;;;;;;4963414;28;20050;-94
2023/12/09 14:17:17;;;;;;;0.10;0.10;;;;;;;;;;4963479;28;20155;-95
2023/12/09 14:19:44;;;;;;;0.77;0.45;;;;;;;;;;4962961;28;20442;-94
2023/12/09 14:22:13;;;;;;;0.40;0.40;;;;;;;;;;4964002;28;20149;-91
2023/12/09 14:24:39;;;;;;;0.10;0.10;;;;;;;;;;4963118;28;20096;-93
2023/12/09 14:27:05;;;;;;;0.40;0.40;;;;;;;;;;4962901;28;20125;-91
2023/12/09 14:29:32;;;;;;;0.10;0.10;;;;;;;;;;4962769;28;20049;-90
2023/12/09 14:32:01;;;;;;;0.10;0.10;;;;;;;;;;4962669;28;20058;-94
2023/12/09 14:34:27;;;;;;;0.10;0.10;;;;;;;;;;4979312;28;20050;-92
2023/12/09 14:36:53;;;;;;;0.10;0.10;;;;;;;;;;4962980;28;20398;-92
2023/12/09 14:39:20;;;;;;;0.43;0.43;;;;;;;;;;4978683;28;20078;-92
2023/12/09 14:41:47;;;;;;;0.10;0.10;;;;;;;;;;4962228;28;20038;-94